createdAt,value
2024-04-02T00:01:31.930Z,0.70
2024-04-02T00:03:39.919Z,0.60
2024-04-02T00:05:48.393Z,0.40
2024-04-02T00:07:55.794Z,0.60
2024-04-02T00:10:03.166Z,0.60
2024-04-02T00:12:11.376Z,0.60
2024-04-02T00:14:19.080Z,0.60
2024-04-02T00:16:26.544Z,0.40
2024-04-02T00:18:33.887Z,0.50
2024-04-02T00:20:41.260Z,0.30
2024-04-02T00:22:49.233Z,0.30
2024-04-02T00:24:56.570Z,0.40
2024-04-02T00:27:04.280Z,0.40
2024-04-02T00:29:11.805Z,0.60
2024-04-02T00:31:21.863Z,0.30
2024-04-02T00:33:29.308Z,0.30
2024-04-02T00:35:36.789Z,0.30
2024-04-02T00:37:44.473Z,0.30
2024-04-02T00:39:52.229Z,0.40
2024-04-02T00:41:59.629Z,0.40
2024-04-02T00:44:07.129Z,0.20
2024-04-02T00:46:14.690Z,0.30
2024-04-02T00:48:24.490Z,0.40
2024-04-02T00:50:32.759Z,0.30
2024-04-02T00:52:41.483Z,0.30
2024-04-02T00:54:49.058Z,0.20
2024-04-02T00:56:56.535Z,0.30
2024-04-02T00:59:04.298Z,0.40
2024-04-02T01:01:12.599Z,0.40
2024-04-02T01:03:19.952Z,0.40
2024-04-02T01:05:27.446Z,0.70
2024-04-02T01:07:36.705Z,0.60
2024-04-02T01:09:46.344Z,0.70
2024-04-02T01:11:55.097Z,0.60
2024-04-02T01:14:02.949Z,0.60
2024-04-02T01:16:14.255Z,0.70
2024-04-02T01:18:22.113Z,0.60
2024-04-02T01:20:29.558Z,0.60
2024-04-02T01:22:37.004Z,0.80
2024-04-02T01:24:50.496Z,0.70
2024-04-02T01:26:59.149Z,0.80
2024-04-02T01:29:07.222Z,0.80
2024-04-02T01:31:14.684Z,0.80
2024-04-02T01:33:22.206Z,0.60
2024-04-02T01:35:29.725Z,0.80
2024-04-02T01:37:37.148Z,0.60
2024-04-02T01:39:44.914Z,0.70
2024-04-02T01:41:52.253Z,0.80
2024-04-02T01:43:59.802Z,0.80
2024-04-02T01:46:07.664Z,0.80
2024-04-02T01:48:15.023Z,0.80
2024-04-02T01:50:22.921Z,0.70
2024-04-02T01:52:30.957Z,0.90
2024-04-02T02:00:07.558Z,1.10
2024-04-02T02:02:15.128Z,0.80
2024-04-02T02:04:23.229Z,1.10
2024-04-02T02:06:30.678Z,0.90
2024-04-02T02:08:38.227Z,0.70
2024-04-02T02:10:45.594Z,0.80
2024-04-02T02:12:53.350Z,0.90
2024-04-02T02:15:01.036Z,0.70
2024-04-02T02:17:09.135Z,0.90
2024-04-02T02:19:16.506Z,1.20
2024-04-02T02:21:24.167Z,1.30
2024-04-02T02:23:31.859Z,1.10
2024-04-02T02:25:39.238Z,1.10
2024-04-02T02:27:46.577Z,1.10
2024-04-02T02:29:54.305Z,1.30
2024-04-02T02:32:03.264Z,1.30
2024-04-02T02:34:12.883Z,1.50
2024-04-02T02:36:21.050Z,1.50
2024-04-02T02:38:28.790Z,1.50
2024-04-02T02:40:36.352Z,1.40
2024-04-02T02:42:46.327Z,1.30
2024-04-02T02:44:53.766Z,1.00
2024-04-02T02:47:01.474Z,1.10
2024-04-02T02:49:08.871Z,1.00
2024-04-02T02:51:16.287Z,1.30
2024-04-02T02:53:24.000Z,1.30
2024-04-02T02:55:31.789Z,1.40
2024-04-02T02:57:40.109Z,1.30
2024-04-02T02:59:48.625Z,1.80
2024-04-02T03:01:57.477Z,1.30
2024-04-02T03:04:05.341Z,1.40
2024-04-02T03:06:12.748Z,1.40
2024-04-02T03:08:20.403Z,1.30
2024-04-02T03:10:27.952Z,1.50
2024-04-02T03:12:35.701Z,1.60
2024-04-02T03:14:43.450Z,1.60
2024-04-02T03:16:50.844Z,1.40
2024-04-02T03:18:58.579Z,1.40
2024-04-02T03:21:06.799Z,1.40
2024-04-02T03:23:14.241Z,1.30
2024-04-02T03:25:21.591Z,1.10
2024-04-02T03:27:29.106Z,1.80
2024-04-02T03:29:36.572Z,1.50
2024-04-02T03:31:44.536Z,1.30
2024-04-02T03:33:51.900Z,1.40
2024-04-02T03:36:04.387Z,1.20
2024-04-02T03:38:12.652Z,1.60
2024-04-02T03:40:20.783Z,1.20
2024-04-02T03:42:28.133Z,1.10
2024-04-02T03:44:36.428Z,1.00
2024-04-02T03:46:43.818Z,1.00
2024-04-02T03:48:52.892Z,1.00
2024-04-02T03:51:00.912Z,1.00
2024-04-02T03:53:09.656Z,1.10
2024-04-02T03:55:19.949Z,1.20
2024-04-02T03:57:27.683Z,1.10
2024-04-02T03:59:37.803Z,1.30
2024-04-02T04:01:45.792Z,0.90
2024-04-02T04:03:54.008Z,1.10
2024-04-02T04:06:03.035Z,1.00
2024-04-02T04:08:11.528Z,1.20
2024-04-02T04:10:19.445Z,1.10
2024-04-02T04:12:27.241Z,1.10
2024-04-02T04:14:35.236Z,1.40
2024-04-02T04:16:42.946Z,1.30
2024-04-02T04:18:50.288Z,1.40
2024-04-02T04:20:59.634Z,0.80
2024-04-02T04:23:08.173Z,2.10
2024-04-02T04:25:16.043Z,1.10
2024-04-02T04:27:29.525Z,1.00
2024-04-02T04:29:36.848Z,1.10
2024-04-02T04:31:47.907Z,1.00
2024-04-02T04:33:55.321Z,1.20
2024-04-02T04:36:02.640Z,1.00
2024-04-02T04:38:10.267Z,0.70
2024-04-02T04:40:21.556Z,1.10
2024-04-02T04:42:33.202Z,0.80
2024-04-02T04:44:44.101Z,0.90
2024-04-02T04:46:51.814Z,0.90
2024-04-02T04:48:59.513Z,0.90
2024-04-02T04:51:08.704Z,0.80
2024-04-02T04:53:16.106Z,1.20
2024-04-02T04:55:23.601Z,1.00
2024-04-02T04:57:30.956Z,1.30
2024-04-02T04:59:38.617Z,1.00
2024-04-02T05:05:37.047Z,1.10
2024-04-02T05:07:59.172Z,1.00
2024-04-02T05:10:09.548Z,1.20
2024-04-02T05:12:16.893Z,1.10
2024-04-02T05:14:24.903Z,1.30
2024-04-02T05:16:34.894Z,1.20
2024-04-02T05:18:42.788Z,1.20
2024-04-02T05:20:50.488Z,1.20
2024-04-02T05:22:58.076Z,1.00
2024-04-02T05:25:06.499Z,1.20
2024-04-02T05:27:13.861Z,1.10
2024-04-02T05:29:21.557Z,1.00
2024-04-02T05:31:29.002Z,1.00
2024-04-02T05:33:36.752Z,1.00
2024-04-02T05:35:44.137Z,1.30
2024-04-02T05:37:53.024Z,1.00
2024-04-02T05:40:00.374Z,0.80
2024-04-02T05:42:12.237Z,1.30
2024-04-02T05:44:19.673Z,1.20
2024-04-02T05:46:27.081Z,1.00
2024-04-02T05:48:34.840Z,1.20
2024-04-02T05:50:42.566Z,0.80
2024-04-02T05:52:50.671Z,1.20
2024-04-02T05:54:58.422Z,1.10
2024-04-02T05:57:06.705Z,1.20
2024-04-02T05:59:14.462Z,1.30
2024-04-02T06:01:23.414Z,1.10
2024-04-02T06:03:30.766Z,1.10
2024-04-02T06:05:39.185Z,0.90
2024-04-02T06:07:46.579Z,1.10
2024-04-02T06:09:55.072Z,1.20
2024-04-02T06:12:02.883Z,1.20
2024-04-02T06:14:10.808Z,1.00
2024-04-02T06:16:18.686Z,1.30
2024-04-02T06:18:26.090Z,1.00
2024-04-02T06:20:33.940Z,0.80
2024-04-02T06:22:41.319Z,1.20
2024-04-02T06:24:49.539Z,1.00
2024-04-02T06:26:56.923Z,1.20
2024-04-02T06:29:04.265Z,1.10
2024-04-02T06:31:11.776Z,1.40
2024-04-02T06:33:19.337Z,0.90
2024-04-02T06:35:26.691Z,1.00
2024-04-02T06:37:34.550Z,1.30
2024-04-02T06:39:41.887Z,1.00
2024-04-02T06:41:49.436Z,0.90
2024-04-02T06:43:56.900Z,1.40
2024-04-02T06:46:04.905Z,1.10
2024-04-02T06:48:12.368Z,1.50
2024-04-02T06:50:19.840Z,1.30
2024-04-02T06:52:27.243Z,1.30
2024-04-02T06:54:34.627Z,1.10
2024-04-02T06:56:42.449Z,1.30
2024-04-02T06:58:49.858Z,1.00
2024-04-02T07:00:57.268Z,1.40
2024-04-02T07:03:05.187Z,1.20
2024-04-02T07:05:12.629Z,1.20
2024-04-02T07:07:20.366Z,1.20
2024-04-02T07:09:27.797Z,1.50
2024-04-02T07:11:35.191Z,1.20
2024-04-02T07:13:43.344Z,1.20
2024-04-02T07:15:50.737Z,1.20
2024-04-02T07:17:58.117Z,2.10
2024-04-02T07:20:06.617Z,3.30
2024-04-02T07:22:13.994Z,1.80
2024-04-02T07:24:21.858Z,1.50
2024-04-02T07:26:29.982Z,1.40
2024-04-02T07:28:37.704Z,1.30
2024-04-02T07:30:45.270Z,1.10
2024-04-02T07:32:53.187Z,1.20
2024-04-02T07:35:01.313Z,1.20
2024-04-02T07:37:09.415Z,1.30
2024-04-02T07:39:17.045Z,1.40
2024-04-02T07:41:30.448Z,1.40
2024-04-02T07:43:38.184Z,1.30
2024-04-02T07:45:54.742Z,1.10
2024-04-02T07:48:04.797Z,1.10
2024-04-02T07:50:12.425Z,1.20
2024-04-02T07:52:20.090Z,1.20
2024-04-02T07:54:27.635Z,1.50
2024-04-02T07:56:35.337Z,1.50
2024-04-02T07:58:43.379Z,1.40
2024-04-02T08:00:51.323Z,1.40
2024-04-02T08:02:59.244Z,1.40
2024-04-02T08:05:08.275Z,0.90
2024-04-02T08:07:18.400Z,0.90
2024-04-02T08:09:26.043Z,1.30
2024-04-02T08:11:33.450Z,1.20
2024-04-02T08:13:40.821Z,1.20
2024-04-02T08:15:52.039Z,1.30
2024-04-02T08:17:59.651Z,1.20
2024-04-02T08:20:10.075Z,1.20
2024-04-02T08:22:19.523Z,1.20
2024-04-02T08:24:27.064Z,1.20
2024-04-02T08:26:34.499Z,1.20
2024-04-02T08:28:41.947Z,1.50
2024-04-02T08:30:49.340Z,1.60
2024-04-02T08:32:56.676Z,1.20
2024-04-02T08:35:06.048Z,1.30
2024-04-02T08:37:13.781Z,1.30
2024-04-02T08:39:21.123Z,1.30
2024-04-02T08:41:29.424Z,1.10
2024-04-02T08:43:37.245Z,1.80
2024-04-02T08:45:45.924Z,2.00
2024-04-02T08:47:54.201Z,1.80
2024-04-02T08:50:02.897Z,1.70
2024-04-02T08:52:10.455Z,1.70
2024-04-02T08:54:17.796Z,1.90
2024-04-02T08:56:25.580Z,1.80
2024-04-02T08:58:35.037Z,1.90
2024-04-02T09:00:42.559Z,1.90
2024-04-02T09:02:50.164Z,2.40
2024-04-02T09:04:57.994Z,1.90
2024-04-02T09:07:05.929Z,1.70
2024-04-02T09:09:24.502Z,1.80
2024-04-02T09:11:32.126Z,1.80
2024-04-02T09:13:40.716Z,1.60
2024-04-02T09:15:50.134Z,1.50
2024-04-02T09:17:58.055Z,1.90
2024-04-02T09:20:07.263Z,1.60
2024-04-02T09:22:17.803Z,1.80
2024-04-02T09:24:26.011Z,1.70
2024-04-02T09:26:33.720Z,1.80
2024-04-02T09:28:44.263Z,1.80
2024-04-02T09:30:51.791Z,1.80
2024-04-02T09:33:03.517Z,1.60
2024-04-02T09:35:15.236Z,1.80
2024-04-02T09:37:35.458Z,1.50
2024-04-02T09:39:44.268Z,1.90
2024-04-02T09:42:02.283Z,1.50
2024-04-02T09:44:14.048Z,1.50
2024-04-02T09:46:23.679Z,1.60
2024-04-02T09:48:33.172Z,1.70
2024-04-02T09:50:44.036Z,1.40
2024-04-02T09:52:54.228Z,1.30
2024-04-02T09:55:04.072Z,1.20
2024-04-02T09:57:15.301Z,1.00
2024-04-02T09:59:23.349Z,0.90
2024-04-02T10:01:33.946Z,1.00
2024-04-02T10:03:45.424Z,1.00
2024-04-02T10:05:53.772Z,1.30
2024-04-02T10:08:01.172Z,0.90
2024-04-02T10:10:09.235Z,1.00
2024-04-02T10:12:21.430Z,1.00
2024-04-02T10:14:29.225Z,0.80
2024-04-02T10:16:40.758Z,0.70
2024-04-02T10:18:49.454Z,0.70
2024-04-02T10:21:00.894Z,0.80
2024-04-02T10:23:11.562Z,0.60
2024-04-02T10:25:18.933Z,0.70
2024-04-02T10:27:27.892Z,0.70
2024-04-02T10:29:35.266Z,0.70
2024-04-02T10:31:44.879Z,0.60
2024-04-02T10:33:55.487Z,0.60
2024-04-02T10:36:03.398Z,0.60
2024-04-02T10:38:11.547Z,0.60
2024-04-02T10:40:20.171Z,0.50
2024-04-02T10:42:27.877Z,0.50
2024-04-02T10:44:36.017Z,0.60
2024-04-02T10:46:45.280Z,0.60
2024-04-02T10:48:52.971Z,0.40
2024-04-02T10:51:00.658Z,0.60
2024-04-02T10:53:08.512Z,0.70
2024-04-02T10:55:16.641Z,0.70
2024-04-02T10:57:24.233Z,0.70
2024-04-02T10:59:37.228Z,0.70
2024-04-02T11:01:45.214Z,0.70
2024-04-02T11:03:54.362Z,0.60
2024-04-02T11:06:12.164Z,0.50
2024-04-02T11:08:19.911Z,0.40
2024-04-02T11:10:27.340Z,0.60
2024-04-02T11:12:34.743Z,0.50
2024-04-02T11:14:42.890Z,0.40
2024-04-02T11:16:53.478Z,0.50
2024-04-02T11:19:02.834Z,0.50
2024-04-02T11:21:15.634Z,0.60
2024-04-02T11:23:45.089Z,0.60
2024-04-02T11:25:54.101Z,0.60
2024-04-02T11:28:10.338Z,1.00
2024-04-02T11:30:21.426Z,2.50
2024-04-02T11:32:30.179Z,2.00
2024-04-02T11:34:37.539Z,15.50
2024-04-02T11:36:45.222Z,3.50
2024-04-02T11:38:52.662Z,2.20
2024-04-02T11:41:03.081Z,6.60
2024-04-02T11:43:10.614Z,2.10
2024-04-02T11:45:18.365Z,1.90
2024-04-02T11:47:25.796Z,1.30
2024-04-02T11:49:33.539Z,1.80
2024-04-02T11:51:40.855Z,1.00
2024-04-02T11:53:48.544Z,1.10
2024-04-02T11:55:56.801Z,0.80
2024-04-02T11:58:22.153Z,2.20
2024-04-02T12:00:30.259Z,0.90
2024-04-02T12:02:37.934Z,0.90
2024-04-02T12:04:46.090Z,1.20
2024-04-02T12:06:59.035Z,0.90
2024-04-02T12:09:10.175Z,0.90
2024-04-02T12:11:18.345Z,0.60
2024-04-02T12:13:26.134Z,0.50
2024-04-02T12:15:34.143Z,0.90
2024-04-02T12:17:41.854Z,0.40
2024-04-02T12:19:49.716Z,0.50
2024-04-02T12:21:57.468Z,0.50
2024-04-02T12:24:06.519Z,0.80
2024-04-02T12:26:14.590Z,0.30
2024-04-02T12:28:21.935Z,0.40
2024-04-02T12:30:32.649Z,0.60
2024-04-02T12:32:44.630Z,1.50
2024-04-02T12:34:53.102Z,1.10
2024-04-02T12:37:02.249Z,0.60
2024-04-02T12:39:09.973Z,0.60
2024-04-02T12:41:17.659Z,0.50
2024-04-02T12:43:25.039Z,0.90
2024-04-02T12:45:33.113Z,0.50
2024-04-02T12:47:42.468Z,0.60
2024-04-02T12:49:50.410Z,0.60
2024-04-02T12:51:57.761Z,0.50
2024-04-02T12:54:05.930Z,0.70
2024-04-02T12:56:15.299Z,0.60
2024-04-02T12:58:28.415Z,0.60
2024-04-02T13:00:42.603Z,0.50
2024-04-02T13:02:50.410Z,0.50
2024-04-02T13:05:00.202Z,0.40
2024-04-02T13:07:07.885Z,0.80
2024-04-02T13:09:15.486Z,1.30
2024-04-02T13:11:22.874Z,0.80
2024-04-02T13:13:30.544Z,0.80
2024-04-02T13:15:38.266Z,0.40
2024-04-02T13:17:45.965Z,0.50
2024-04-02T13:19:54.325Z,0.30
2024-04-02T13:22:02.030Z,0.20
2024-04-02T13:24:10.860Z,0.50
2024-04-02T13:26:18.736Z,0.60
2024-04-02T13:28:26.495Z,0.80
2024-04-02T13:30:34.003Z,1.50
2024-04-02T13:32:41.483Z,0.90
2024-04-02T13:34:50.596Z,0.50
2024-04-02T13:36:57.944Z,0.70
2024-04-02T13:39:05.594Z,0.60
2024-04-02T13:41:13.707Z,0.60
2024-04-02T13:43:21.511Z,0.70
2024-04-02T13:45:29.213Z,1.00
2024-04-02T13:47:36.845Z,1.00
2024-04-02T13:49:44.579Z,2.20
2024-04-02T13:51:51.935Z,1.50
2024-04-02T13:53:59.326Z,1.60
2024-04-02T13:56:09.464Z,1.50
2024-04-02T13:58:17.149Z,1.40
2024-04-02T14:00:24.543Z,1.60
2024-04-02T14:02:31.875Z,0.50
2024-04-02T14:04:44.825Z,0.70
2024-04-02T14:06:52.579Z,1.00
2024-04-02T14:08:59.890Z,0.60
2024-04-02T14:11:07.990Z,0.80
2024-04-02T14:13:34.480Z,0.90
2024-04-02T14:15:42.987Z,1.00
2024-04-02T14:17:50.878Z,1.60
2024-04-02T14:20:00.685Z,1.10
2024-04-02T14:22:08.338Z,1.00
2024-04-02T14:24:16.572Z,0.90
2024-04-02T14:26:25.029Z,0.50
2024-04-02T14:28:33.562Z,0.70
2024-04-02T14:30:40.889Z,0.80
2024-04-02T14:32:48.272Z,0.80
2024-04-02T14:34:57.663Z,1.00
2024-04-02T14:37:06.831Z,0.80
2024-04-02T14:39:14.257Z,0.70
2024-04-02T14:41:22.151Z,0.70
2024-04-02T14:43:31.007Z,0.70
2024-04-02T14:45:38.587Z,0.50
2024-04-02T14:47:46.754Z,0.60
2024-04-02T14:49:55.168Z,0.70
2024-04-02T14:52:02.596Z,0.50
2024-04-02T14:54:09.970Z,1.20
2024-04-02T14:56:17.420Z,2.40
2024-04-02T14:58:25.422Z,0.80
2024-04-02T15:00:33.100Z,1.40
2024-04-02T15:02:40.845Z,0.60
2024-04-02T15:04:48.511Z,0.40
2024-04-02T15:06:56.240Z,0.60
2024-04-02T15:09:12.560Z,0.70
2024-04-02T15:11:23.639Z,1.10
2024-04-02T15:13:31.451Z,0.70
2024-04-02T15:15:39.148Z,0.90
2024-04-02T15:17:46.477Z,3.20
2024-04-02T15:19:53.844Z,1.70
2024-04-02T15:22:03.253Z,1.90
2024-04-02T15:24:12.714Z,1.70
2024-04-02T15:26:20.417Z,0.90
2024-04-02T15:28:27.726Z,0.90
2024-04-02T15:30:35.059Z,0.50
2024-04-02T15:32:44.312Z,0.80
2024-04-02T15:34:52.619Z,0.70
2024-04-02T15:36:59.962Z,0.60
2024-04-02T15:39:09.265Z,0.60
2024-04-02T15:41:17.112Z,0.70
2024-04-02T15:43:24.837Z,0.50
2024-04-02T15:45:32.168Z,0.60
2024-04-02T15:47:39.835Z,0.70
2024-04-02T15:49:47.611Z,0.40
2024-04-02T15:51:55.232Z,0.70
2024-04-02T15:54:02.993Z,0.70
2024-04-02T15:56:29.407Z,0.90
2024-04-02T15:58:37.956Z,1.40
2024-04-02T16:00:45.301Z,1.30
2024-04-02T16:02:53.005Z,1.60
2024-04-02T16:05:00.751Z,1.50
2024-04-02T16:07:08.549Z,1.30
2024-04-02T16:09:15.915Z,1.10
2024-04-02T16:11:24.468Z,1.20
2024-04-02T16:13:33.393Z,1.00
2024-04-02T16:15:40.797Z,1.50
2024-04-02T16:17:48.548Z,0.70
2024-04-02T16:19:55.980Z,0.70
2024-04-02T16:22:03.343Z,0.60
2024-04-02T16:24:11.248Z,0.80
2024-04-02T16:26:18.577Z,1.00
2024-04-02T16:28:27.392Z,1.40
2024-04-02T16:30:37.351Z,3.70
2024-04-02T16:32:45.027Z,1.40
2024-04-02T16:34:55.584Z,2.40
2024-04-02T16:37:03.272Z,6.00
2024-04-02T16:39:11.340Z,2.30
2024-04-02T16:41:19.298Z,1.80
2024-04-02T16:43:28.267Z,1.10
2024-04-02T16:45:37.531Z,2.20
2024-04-02T16:47:47.616Z,2.50
2024-04-02T16:49:55.037Z,1.30
2024-04-02T16:52:02.722Z,1.30
2024-04-02T16:54:10.322Z,1.70
2024-04-02T16:56:18.328Z,1.50
2024-04-02T16:58:26.005Z,1.30
2024-04-02T17:00:33.616Z,1.70
2024-04-02T17:02:45.851Z,4.30
2024-04-02T17:04:53.183Z,2.30
2024-04-02T17:07:01.305Z,6.10
2024-04-02T17:09:09.381Z,4.60
2024-04-02T17:11:16.845Z,2.30
2024-04-02T17:13:24.271Z,7.10
2024-04-02T17:15:33.153Z,7.90
2024-04-02T17:17:40.737Z,10.80
2024-04-02T17:19:56.977Z,12.20
2024-04-02T17:22:05.811Z,9.00
2024-04-02T17:24:13.227Z,6.60
2024-04-02T17:26:21.019Z,19.40
2024-04-02T17:28:29.076Z,4.40
2024-04-02T17:30:36.419Z,4.30
2024-04-02T17:32:43.837Z,2.80
2024-04-02T17:34:53.108Z,2.70
2024-04-02T17:37:01.046Z,2.10
2024-04-02T17:39:09.616Z,3.90
2024-04-02T17:41:17.821Z,3.00
2024-04-02T17:43:26.675Z,2.80
2024-04-02T17:45:34.129Z,3.60
2024-04-02T17:47:41.550Z,4.40
2024-04-02T17:49:49.286Z,5.20
2024-04-02T17:51:59.774Z,4.40
2024-04-02T17:54:08.044Z,3.20
2024-04-02T17:56:18.432Z,3.30
2024-04-02T17:58:26.149Z,2.40
2024-04-02T18:00:33.479Z,2.30
2024-04-02T18:02:40.840Z,10.50
2024-04-02T18:04:48.409Z,3.20
2024-04-02T18:06:56.955Z,2.90
2024-04-02T18:09:04.323Z,8.80
2024-04-02T18:11:13.359Z,6.20
2024-04-02T18:13:21.080Z,3.90
2024-04-02T18:15:29.138Z,9.80
2024-04-02T18:17:36.518Z,10.20
2024-04-02T18:19:44.222Z,8.70
2024-04-02T18:21:51.546Z,8.60
2024-04-02T18:23:59.230Z,8.00
2024-04-02T18:26:08.977Z,6.70
2024-04-02T18:28:18.149Z,14.80
2024-04-02T18:30:25.523Z,14.20
2024-04-02T18:32:33.409Z,11.10
2024-04-02T18:34:40.752Z,5.50
2024-04-02T18:36:48.912Z,7.80
2024-04-02T18:38:58.403Z,7.90
2024-04-02T18:41:07.921Z,9.40
2024-04-02T18:43:16.459Z,5.60
2024-04-02T18:45:23.832Z,5.00
2024-04-02T18:47:31.555Z,6.30
2024-04-02T18:49:38.987Z,6.70
2024-04-02T18:51:46.350Z,9.40
2024-04-02T18:53:53.673Z,7.60
2024-04-02T18:56:04.311Z,5.00
2024-04-02T18:58:12.212Z,5.10
2024-04-02T19:00:21.255Z,11.40
2024-04-02T19:02:30.580Z,8.20
2024-04-02T19:04:38.326Z,4.80
2024-04-02T19:06:45.635Z,12.00
2024-04-02T19:08:52.931Z,6.70
2024-04-02T19:11:04.252Z,21.40
2024-04-02T19:13:11.824Z,12.70
2024-04-02T19:15:19.500Z,7.20
2024-04-02T19:17:26.892Z,7.60
2024-04-02T19:19:34.775Z,4.20
2024-04-02T19:21:42.120Z,3.20
2024-04-02T19:23:49.532Z,4.40
2024-04-02T19:25:58.683Z,4.80
2024-04-02T19:28:07.927Z,2.60
2024-04-02T19:30:17.358Z,3.00
2024-04-02T19:32:25.072Z,3.10
2024-04-02T19:34:32.764Z,5.70
2024-04-02T19:36:40.161Z,3.90
2024-04-02T19:38:47.896Z,3.60
2024-04-02T19:41:00.850Z,2.90
2024-04-02T19:43:08.570Z,2.00
2024-04-02T19:45:16.023Z,1.90
2024-04-02T19:47:23.546Z,1.40
2024-04-02T19:49:30.983Z,2.10
2024-04-02T19:51:39.857Z,1.70
2024-04-02T19:53:50.287Z,1.80
2024-04-02T19:55:58.713Z,1.90
2024-04-02T19:58:06.486Z,1.80
2024-04-02T20:00:15.458Z,1.40
2024-04-02T20:02:22.792Z,1.70
2024-04-02T20:04:30.138Z,1.80
2024-04-02T20:06:38.206Z,1.30
2024-04-02T20:08:46.402Z,1.60
2024-04-02T20:10:54.559Z,2.10
2024-04-02T20:13:01.956Z,2.30
2024-04-02T20:15:10.449Z,2.90
2024-04-02T20:17:18.068Z,2.40
2024-04-02T20:19:26.220Z,2.60
2024-04-02T20:21:33.569Z,2.40
2024-04-02T20:23:42.002Z,2.40
2024-04-02T20:25:49.488Z,3.50
2024-04-02T20:27:56.917Z,2.80
2024-04-02T20:30:05.238Z,3.40
2024-04-02T20:32:13.306Z,2.60
2024-04-02T20:34:20.982Z,5.10
2024-04-02T20:36:28.646Z,4.50
2024-04-02T20:38:36.609Z,3.80
2024-04-02T20:40:44.308Z,13.50
2024-04-02T20:42:51.769Z,7.40
2024-04-02T20:45:00.507Z,6.10
2024-04-02T20:47:08.754Z,5.30
2024-04-02T20:49:16.804Z,3.80
2024-04-02T20:51:24.195Z,2.20
2024-04-02T20:53:31.523Z,3.50
2024-04-02T20:55:39.280Z,2.40
2024-04-02T20:57:47.054Z,3.20
2024-04-02T20:59:54.774Z,2.60
2024-04-02T21:02:02.508Z,2.00
2024-04-02T21:04:10.076Z,6.40
2024-04-02T21:06:17.508Z,9.10
2024-04-02T21:08:24.868Z,7.70
2024-04-02T21:10:32.424Z,5.60
2024-04-02T21:12:39.820Z,5.30
2024-04-02T21:14:47.135Z,11.60
2024-04-02T21:16:54.551Z,6.90
2024-04-02T21:19:01.889Z,7.70
2024-04-02T21:21:10.415Z,5.90
2024-04-02T21:23:17.809Z,3.00
2024-04-02T21:25:25.640Z,2.50
2024-04-02T21:27:33.304Z,2.40
2024-04-02T21:29:41.127Z,3.60
2024-04-02T21:31:48.471Z,2.40
2024-04-02T21:33:56.217Z,3.10
2024-04-02T21:36:03.835Z,2.70
2024-04-02T21:38:15.101Z,3.30
2024-04-02T21:40:23.550Z,1.90
2024-04-02T21:42:30.897Z,1.90
2024-04-02T21:44:42.704Z,2.10
2024-04-02T21:46:50.743Z,1.80
2024-04-02T21:48:58.850Z,1.40
2024-04-02T21:51:08.521Z,1.10
2024-04-02T21:53:15.871Z,1.30
2024-04-02T21:55:24.022Z,1.20
2024-04-02T21:57:31.991Z,1.60
2024-04-02T21:59:39.283Z,1.40
2024-04-02T22:01:47.019Z,1.10
2024-04-02T22:03:54.320Z,1.20
2024-04-02T22:06:04.083Z,1.20
2024-04-02T22:08:13.200Z,0.90
2024-04-02T22:10:21.780Z,0.80
2024-04-02T22:12:29.181Z,1.20
2024-04-02T22:14:36.882Z,0.80
2024-04-02T22:16:44.649Z,0.80
2024-04-02T22:18:52.458Z,0.70
2024-04-02T22:21:07.181Z,1.10
2024-04-02T22:23:16.028Z,0.70
2024-04-02T22:25:23.598Z,0.60
2024-04-02T22:29:38.751Z,0.90
2024-04-02T22:31:46.063Z,0.90
2024-04-02T22:33:53.408Z,0.80
2024-04-02T22:36:00.822Z,0.90
2024-04-02T22:38:09.671Z,1.30
2024-04-02T22:40:18.127Z,1.00
2024-04-02T22:42:25.971Z,0.80
2024-04-02T22:44:33.330Z,0.80
2024-04-02T22:46:40.705Z,0.80
2024-04-02T22:48:50.095Z,0.60
2024-04-02T22:50:57.415Z,0.70
2024-04-02T22:53:05.375Z,1.00
2024-04-02T22:55:13.634Z,0.80
2024-04-02T22:57:20.998Z,0.90
2024-04-02T22:59:28.432Z,0.80
2024-04-02T23:01:35.920Z,1.10
2024-04-02T23:03:43.244Z,0.90
2024-04-02T23:05:50.645Z,0.70
2024-04-02T23:07:57.989Z,0.60
2024-04-02T23:10:06.096Z,0.60
2024-04-02T23:12:13.675Z,0.60
2024-04-02T23:14:21.799Z,0.40
2024-04-02T23:16:29.717Z,0.70
2024-04-02T23:18:37.673Z,0.70
2024-04-02T23:20:55.064Z,0.50
2024-04-02T23:23:02.767Z,0.50
2024-04-02T23:25:10.208Z,0.40
2024-04-02T23:27:17.603Z,0.60
2024-04-02T23:29:24.989Z,0.50
2024-04-02T23:31:32.360Z,0.70
2024-04-02T23:33:40.034Z,0.50
2024-04-02T23:35:48.034Z,0.50
2024-04-02T23:37:55.799Z,0.50
2024-04-02T23:40:04.242Z,0.40
2024-04-02T23:42:11.659Z,0.60
2024-04-02T23:44:19.407Z,0.40
2024-04-02T23:46:27.187Z,0.60
2024-04-02T23:48:34.995Z,0.50
2024-04-02T23:50:46.512Z,0.60
2024-04-02T23:52:53.923Z,0.70
2024-04-02T23:55:01.324Z,0.70
2024-04-02T23:57:09.151Z,1.00
2024-04-02T23:59:16.847Z,1.20
